Time;durP1;ratioP1;P1;durP2;ratioP2;P2;SDS_P1;SDS_P2;PMS_P1;PMS_P2;Temp;Humidity;BMP_temperature;BMP_pressure;BME280_temperature;BME280_humidity;BME280_pressure;Samples;Min_cycle;Max_cycle;Signal;HPM_P1;HPM_P2
2023/03/09 00:01:32;;;;;;;;;;;;;;;;;;5095048;28;19911;-67
2023/03/09 00:03:58;;;;;;;;;;;;;;;;;;5094552;28;19958;-67
2023/03/09 00:06:24;;;;;;;;;;;;;;;;;;5094928;28;20356;-67
2023/03/09 00:08:50;;;;;;;;;;;;;;;;;;5095421;28;19983;-66
2023/03/09 00:11:16;;;;;;;;;;;;;;;;;;5092002;28;19927;-67
2023/03/09 00:13:42;;;;;;;;;;;;;;;;;;5094830;28;20303;-66
2023/03/09 00:16:08;;;;;;;;;;;;;;;;;;5094713;28;20433;-66
2023/03/09 00:18:34;;;;;;;;;;;;;;;;;;5094284;28;20276;-66
2023/03/09 00:21:00;;;;;;;;;;;;;;;;;;5094211;28;19908;-67
2023/03/09 00:23:26;;;;;;;;;;;;;;;;;;5094647;28;19970;-66
2023/03/09 00:25:51;;;;;;;;;;;;;;;;;;5094185;28;19908;-66
2023/03/09 00:28:17;;;;;;;;;;;;;;;;;;5094567;28;19908;-66
2023/03/09 00:30:43;;;;;;;;;;;;;;;;;;5094033;28;20000;-66
2023/03/09 00:33:09;;;;;;;;;;;;;;;;;;5094512;28;19908;-66
2023/03/09 00:35:35;;;;;;;;;;;;;;;;;;5094440;28;19908;-66
2023/03/09 00:38:01;;;;;;;;;;;;;;;;;;5094015;28;19995;-66
2023/03/09 00:40:27;;;;;;;;;;;;;;;;;;5094899;28;19908;-66
2023/03/09 00:42:53;;;;;;;;;;;;;;;;;;5094340;28;19912;-66
2023/03/09 00:45:21;;;;;;;;;;;;;;;;;;5093874;28;19961;-66
2023/03/09 00:47:47;;;;;;;;;;;;;;;;;;5094715;28;20425;-66
2023/03/09 00:50:13;;;;;;;;;;;;;;;;;;5094185;28;19912;-66
2023/03/09 00:52:39;;;;;;;;;;;;;;;;;;5093830;28;19909;-66
2023/03/09 00:55:05;;;;;;;;;;;;;;;;;;5094143;28;19915;-66
2023/03/09 00:57:31;;;;;;;;;;;;;;;;;;5094046;28;19976;-66
2023/03/09 00:59:57;;;;;;;;;;;;;;;;;;5093684;28;19962;-66
2023/03/09 01:02:23;;;;;;;;;;;;;;;;;;5093996;28;19914;-66
2023/03/09 01:04:49;;;;;;;;;;;;;;;;;;5093988;28;19908;-66
2023/03/09 01:07:15;;;;;;;;;;;;;;;;;;5093722;28;19909;-66
2023/03/09 01:09:40;;;;;;;;;;;;;;;;;;5093944;28;20002;-66
2023/03/09 01:12:06;;;;;;;;;;;;;;;;;;5092444;28;19920;-66
2023/03/09 01:14:32;;;;;;;;;;;;;;;;;;5093514;28;20278;-66
2023/03/09 01:16:58;;;;;;;;;;;;;;;;;;5093927;28;19908;-66
2023/03/09 01:19:24;;;;;;;;;;;;;;;;;;5093835;28;19914;-66
2023/03/09 01:21:50;;;;;;;;;;;;;;;;;;5093449;28;19908;-66
2023/03/09 01:24:16;;;;;;;;;;;;;;;;;;5093842;28;19915;-66
2023/03/09 01:26:42;;;;;;;;;;;;;;;;;;5093860;28;19909;-66
2023/03/09 01:29:08;;;;;;;;;;;;;;;;;;5093301;28;19908;-66
2023/03/09 01:31:34;;;;;;;;;;;;;;;;;;5093720;28;19927;-66
2023/03/09 01:34:00;;;;;;;;;;;;;;;;;;5097320;28;19908;-66
2023/03/09 01:36:26;;;;;;;;;;;;;;;;;;5096545;28;19961;-66
2023/03/09 01:38:52;;;;;;;;;;;;;;;;;;5097743;28;19908;-66
2023/03/09 01:41:18;;;;;;;;;;;;;;;;;;5097450;28;19916;-66
2023/03/09 01:43:43;;;;;;;;;;;;;;;;;;5097734;28;20298;-66
2023/03/09 01:46:09;;;;;;;;;;;;;;;;;;5098161;28;20257;-66
2023/03/09 01:48:35;;;;;;;;;;;;;;;;;;5097180;28;20335;-66
2023/03/09 01:51:01;;;;;;;;;;;;;;;;;;5097521;28;19916;-66
2023/03/09 01:53:27;;;;;;;;;;;;;;;;;;5097466;28;19908;-66
2023/03/09 01:55:53;;;;;;;;;;;;;;;;;;5097126;28;19951;-66
2023/03/09 01:58:19;;;;;;;;;;;;;;;;;;5097408;28;19908;-66
2023/03/09 02:00:45;;;;;;;;;;;;;;;;;;5097397;28;19977;-66
2023/03/09 02:03:11;;;;;;;;;;;;;;;;;;5096957;28;19908;-66
2023/03/09 02:05:37;;;;;;;;;;;;;;;;;;5097615;28;19908;-66
2023/03/09 02:08:03;;;;;;;;;;;;;;;;;;5097243;28;19926;-66
2023/03/09 02:10:29;;;;;;;;;;;;;;;;;;5096704;28;19928;-66
2023/03/09 02:12:55;;;;;;;;;;;;;;;;;;5097104;28;19908;-66
2023/03/09 02:15:21;;;;;;;;;;;;;;;;;;5097630;28;20241;-66
2023/03/09 02:17:47;;;;;;;;;;;;;;;;;;5096830;28;19953;-66
2023/03/09 02:20:13;;;;;;;;;;;;;;;;;;5096974;28;19908;-65
2023/03/09 02:22:39;;;;;;;;;;;;;;;;;;5096993;28;19918;-65
2023/03/09 02:25:05;;;;;;;;;;;;;;;;;;5096517;28;20359;-66
2023/03/09 02:27:31;;;;;;;;;;;;;;;;;;5097149;28;19908;-66
2023/03/09 02:29:57;;;;;;;;;;;;;;;;;;5096817;28;19915;-67
2023/03/09 02:32:22;;;;;;;;;;;;;;;;;;5096349;28;19963;-67
2023/03/09 02:34:48;;;;;;;;;;;;;;;;;;5096740;28;19908;-66
2023/03/09 02:37:14;;;;;;;;;;;;;;;;;;5096501;28;19908;-66
2023/03/09 02:39:40;;;;;;;;;;;;;;;;;;5096598;28;19947;-65
2023/03/09 02:42:06;;;;;;;;;;;;;;;;;;5096556;28;19914;-66
2023/03/09 02:44:32;;;;;;;;;;;;;;;;;;5095693;28;20706;-66
2023/03/09 02:46:58;;;;;;;;;;;;;;;;;;5096562;28;20360;-66
2023/03/09 02:49:24;;;;;;;;;;;;;;;;;;5096456;28;19909;-66
2023/03/09 02:51:50;;;;;;;;;;;;;;;;;;5094714;28;19920;-66
2023/03/09 02:54:16;;;;;;;;;;;;;;;;;;5096336;28;19909;-66
2023/03/09 02:56:42;;;;;;;;;;;;;;;;;;5096358;28;19908;-66
2023/03/09 02:59:08;;;;;;;;;;;;;;;;;;5096067;28;20364;-66
2023/03/09 03:01:34;;;;;;;;;;;;;;;;;;5096231;28;20293;-66
2023/03/09 03:04:00;;;;;;;;;;;;;;;;;;5096116;28;20003;-66
2023/03/09 03:06:26;;;;;;;;;;;;;;;;;;5095854;28;19915;-66
2023/03/09 03:08:52;;;;;;;;;;;;;;;;;;5096387;28;19908;-66
2023/03/09 03:11:17;;;;;;;;;;;;;;;;;;5095894;28;19934;-68
2023/03/09 03:13:43;;;;;;;;;;;;;;;;;;5095553;28;19912;-66
2023/03/09 03:16:09;;;;;;;;;;;;;;;;;;5094660;28;19908;-66
2023/03/09 03:18:35;;;;;;;;;;;;;;;;;;5095897;28;19958;-66
2023/03/09 03:21:02;;;;;;;;;;;;;;;;;;5095578;28;20276;-66
2023/03/09 03:23:28;;;;;;;;;;;;;;;;;;5096021;28;19915;-66
2023/03/09 03:25:53;;;;;;;;;;;;;;;;;;5095746;28;19912;-66
2023/03/09 03:28:19;;;;;;;;;;;;;;;;;;5095345;28;19950;-66
2023/03/09 03:30:45;;;;;;;;;;;;;;;;;;5095810;28;19923;-66
2023/03/09 03:33:11;;;;;;;;;;;;;;;;;;5095567;28;19955;-66
2023/03/09 03:35:37;;;;;;;;;;;;;;;;;;5095171;28;20374;-66
2023/03/09 03:38:03;;;;;;;;;;;;;;;;;;5096056;28;19912;-66
2023/03/09 03:40:29;;;;;;;;;;;;;;;;;;5095119;28;20267;-66
2023/03/09 03:42:55;;;;;;;;;;;;;;;;;;5095360;28;19912;-67
2023/03/09 03:45:21;;;;;;;;;;;;;;;;;;5095403;28;20006;-66
2023/03/09 03:47:47;;;;;;;;;;;;;;;;;;5094914;28;19908;-66
2023/03/09 03:50:13;;;;;;;;;;;;;;;;;;5095423;28;20006;-66
2023/03/09 03:52:39;;;;;;;;;;;;;;;;;;5095221;28;20372;-66
2023/03/09 03:55:05;;;;;;;;;;;;;;;;;;5093915;28;19958;-66
2023/03/09 03:57:31;;;;;;;;;;;;;;;;;;5095132;28;19908;-66
2023/03/09 03:59:57;;;;;;;;;;;;;;;;;;5095056;28;19960;-66
2023/03/09 04:02:23;;;;;;;;;;;;;;;;;;5094616;28;20329;-66
2023/03/09 04:04:49;;;;;;;;;;;;;;;;;;5094993;28;20307;-66
2023/03/09 04:07:15;;;;;;;;;;;;;;;;;;5095235;28;20280;-66
2023/03/09 04:09:41;;;;;;;;;;;;;;;;;;5094630;28;19908;-66
2023/03/09 04:12:06;;;;;;;;;;;;;;;;;;5094666;28;20443;-67
2023/03/09 04:14:33;;;;;;;;;;;;;;;;;;5094775;28;19939;-67
2023/03/09 04:16:58;;;;;;;;;;;;;;;;;;5094560;28;19912;-67
2023/03/09 04:19:24;;;;;;;;;;;;;;;;;;5094700;28;19915;-67
2023/03/09 04:21:50;;;;;;;;;;;;;;;;;;5095304;28;20357;-67
2023/03/09 04:24:16;;;;;;;;;;;;;;;;;;5094390;28;19908;-67
2023/03/09 04:26:42;;;;;;;;;;;;;;;;;;5094593;28;19908;-67
2023/03/09 04:29:08;;;;;;;;;;;;;;;;;;5095070;28;20264;-66
2023/03/09 04:31:34;;;;;;;;;;;;;;;;;;5093963;28;19916;-66
2023/03/09 04:34:00;;;;;;;;;;;;;;;;;;5094646;28;19912;-66
2023/03/09 04:36:26;;;;;;;;;;;;;;;;;;5094429;28;19915;-66
2023/03/09 04:38:53;;;;;;;;;;;;;;;;;;5094022;28;19981;-66
2023/03/09 04:41:19;;;;;;;;;;;;;;;;;;5094332;28;19908;-67
2023/03/09 04:43:46;;;;;;;;;;;;;;;;;;5094472;28;19915;-67
2023/03/09 04:46:12;;;;;;;;;;;;;;;;;;5094364;28;19908;-68
2023/03/09 04:48:38;;;;;;;;;;;;;;;;;;5094343;28;19909;-66
2023/03/09 04:51:04;;;;;;;;;;;;;;;;;;5093713;28;19919;-68
2023/03/09 04:53:30;;;;;;;;;;;;;;;;;;5094208;28;19908;-67
2023/03/09 04:55:56;;;;;;;;;;;;;;;;;;5094392;28;19915;-67
2023/03/09 04:58:22;;;;;;;;;;;;;;;;;;5093714;28;19908;-67
2023/03/09 05:00:48;;;;;;;;;;;;;;;;;;5094389;28;19934;-66
2023/03/09 05:03:14;;;;;;;;;;;;;;;;;;5094263;28;19927;-67
2023/03/09 05:05:40;;;;;;;;;;;;;;;;;;5093523;28;20356;-67
2023/03/09 05:08:06;;;;;;;;;;;;;;;;;;5094522;28;20401;-68
2023/03/09 05:10:32;;;;;;;;;;;;;;;;;;5093711;28;20281;-67
2023/03/09 05:12:58;;;;;;;;;;;;;;;;;;5093620;28;20348;-67
2023/03/09 05:15:24;;;;;;;;;;;;;;;;;;5093910;28;19912;-67
2023/03/09 05:17:50;;;;;;;;;;;;;;;;;;5094163;28;20353;-67
2023/03/09 05:20:16;;;;;;;;;;;;;;;;;;5093546;28;20383;-67
2023/03/09 05:22:42;;;;;;;;;;;;;;;;;;5094134;28;19916;-67
2023/03/09 05:25:08;;;;;;;;;;;;;;;;;;5092502;28;20279;-67
2023/03/09 05:27:34;;;;;;;;;;;;;;;;;;5093417;28;20318;-68
2023/03/09 05:30:00;;;;;;;;;;;;;;;;;;5093771;28;19912;-67
2023/03/09 05:32:26;;;;;;;;;;;;;;;;;;5094304;28;20267;-67
2023/03/09 05:34:52;;;;;;;;;;;;;;;;;;5093284;28;20257;-67
2023/03/09 05:37:18;;;;;;;;;;;;;;;;;;5093857;28;19908;-67
2023/03/09 05:39:44;;;;;;;;;;;;;;;;;;5093726;28;19909;-67
2023/03/09 05:42:10;;;;;;;;;;;;;;;;;;5093147;28;20284;-67
2023/03/09 05:44:36;;;;;;;;;;;;;;;;;;5093524;28;20338;-67
2023/03/09 05:47:02;;;;;;;;;;;;;;;;;;5093714;28;19914;-67
2023/03/09 05:49:28;;;;;;;;;;;;;;;;;;5091836;28;19912;-68
2023/03/09 05:51:54;;;;;;;;;;;;;;;;;;5093392;28;19927;-67
2023/03/09 05:54:21;;;;;;;;;;;;;;;;;;5093315;28;19908;-67
2023/03/09 05:56:47;;;;;;;;;;;;;;;;;;5093701;28;20276;-66
2023/03/09 05:59:13;;;;;;;;;;;;;;;;;;5092184;28;19912;-67
2023/03/09 06:01:40;;;;;;;;;;;;;;;;;;5095206;28;19907;-70
2023/03/09 06:04:06;;;;;;;;;;;;;;;;;;5091074;28;19908;-70
2023/03/09 06:06:32;;;;;;;;;;;;;;;;;;5090908;28;19934;-70
2023/03/09 06:08:58;;;;;;;;;;;;;;;;;;5090639;28;19908;-69
2023/03/09 06:11:24;;;;;;;;;;;;;;;;;;5091816;28;20376;-71
2023/03/09 06:13:50;;;;;;;;;;;;;;;;;;5092256;28;20433;-72
2023/03/09 06:16:16;;;;;;;;;;;;;;;;;;5092554;28;19908;-69
2023/03/09 06:18:42;;;;;;;;;;;;;;;;;;5094518;28;19912;-69
2023/03/09 06:21:08;;;;;;;;;;;;;;;;;;5096642;28;19969;-68
2023/03/09 06:23:37;;;;;;;;;;;;;;;;;;5095693;28;20388;-68
2023/03/09 06:26:03;;;;;;;;;;;;;;;;;;5076870;28;20346;-68
2023/03/09 06:28:29;;;;;;;;;;;;;;;;;;5075910;28;19909;-69
2023/03/09 06:30:54;;;;;;;;;;;;;;;;;;5075339;28;20408;-68
2023/03/09 06:33:20;;;;;;;;;;;;;;;;;;5074471;28;19913;-67
2023/03/09 06:35:46;;;;;;;;;;;;;;;;;;5074619;28;19909;-68
2023/03/09 06:38:12;;;;;;;;;;;;;;;;;;5086106;28;20425;-67
2023/03/09 06:40:38;;;;;;;;;;;;;;;;;;5068524;28;19909;-70
2023/03/09 06:43:05;;;;;;;;;;;;;;;;;;5066676;28;19919;-69
2023/03/09 06:45:31;;;;;;;;;;;;;;;;;;5071058;28;19913;-69
2023/03/09 06:47:56;;;;;;;;;;;;;;;;;;5078214;28;19919;-70
2023/03/09 06:50:22;;;;;;;;;;;;;;;;;;5091152;28;19908;-70
2023/03/09 06:52:49;;;;;;;;;;;;;;;;;;5073903;28;19947;-69
2023/03/09 06:55:15;;;;;;;;;;;;;;;;;;5092697;28;19909;-69
2023/03/09 06:57:40;;;;;;;;;;;;;;;;;;5081661;28;19915;-70
2023/03/09 07:00:08;;;;;;;;;;;;;;;;;;5073666;28;19912;-68
2023/03/09 07:02:33;;;;;;;;;;;;;;;;;;5067939;28;19921;-68
2023/03/09 07:04:59;;;;;;;;;;;;;;;;;;5069091;28;19912;-69
2023/03/09 07:07:26;;;;;;;;;;;;;;;;;;5074792;28;19916;-69
2023/03/09 07:09:54;;;;;;;;;;;;;;;;;;5073572;28;20387;-70
2023/03/09 07:12:20;;;;;;;;;;;;;;;;;;5090845;28;19966;-69
2023/03/09 07:14:46;;;;;;;;;;;;;;;;;;5092379;28;20345;-67
2023/03/09 07:17:11;;;;;;;;;;;;;;;;;;5092633;28;19926;-69
2023/03/09 07:19:37;;;;;;;;;;;;;;;;;;5091904;28;19914;-69
2023/03/09 07:22:03;;;;;;;;;;;;;;;;;;5092601;28;20374;-69
2023/03/09 07:24:29;;;;;;;;;;;;;;;;;;5088627;28;19908;-69
2023/03/09 07:26:55;;;;;;;;;;;;;;;;;;5091863;28;19923;-68
2023/03/09 07:29:21;;;;;;;;;;;;;;;;;;5092202;28;20368;-69
2023/03/09 07:31:48;;;;;;;;;;;;;;;;;;5093624;28;19959;-69
2023/03/09 07:34:14;;;;;;;;;;;;;;;;;;5091806;28;19958;-67
2023/03/09 07:36:40;;;;;;;;;;;;;;;;;;5092153;28;20263;-67
2023/03/09 07:39:06;;;;;;;;;;;;;;;;;;5091997;28;19908;-67
2023/03/09 07:41:32;;;;;;;;;;;;;;;;;;5095092;28;19911;-67
2023/03/09 07:43:58;;;;;;;;;;;;;;;;;;5103073;28;19999;-67
2023/03/09 07:46:24;;;;;;;;;;;;;;;;;;5094763;28;19916;-67
2023/03/09 07:48:50;;;;;;;;;;;;;;;;;;5089414;28;19912;-66
2023/03/09 07:51:16;;;;;;;;;;;;;;;;;;5093345;28;20014;-66
2023/03/09 07:53:41;;;;;;;;;;;;;;;;;;5093467;28;19995;-67
2023/03/09 07:56:08;;;;;;;;;;;;;;;;;;5090744;28;20374;-68
2023/03/09 07:58:33;;;;;;;;;;;;;;;;;;5090980;28;20603;-68
2023/03/09 08:01:00;;;;;;;;;;;;;;;;;;5090670;28;19920;-67
2023/03/09 08:03:25;;;;;;;;;;;;;;;;;;5090834;28;20025;-68
2023/03/09 08:05:55;;;;;;;;;;;;;;;;;;5090753;28;19912;-68
2023/03/09 08:08:21;;;;;;;;;;;;;;;;;;5090987;28;19932;-68
2023/03/09 08:10:47;;;;;;;;;;;;;;;;;;5090151;28;20355;-67
2023/03/09 08:13:13;;;;;;;;;;;;;;;;;;5091208;28;20280;-68
2023/03/09 08:15:39;;;;;;;;;;;;;;;;;;5090010;28;20023;-67
2023/03/09 08:18:05;;;;;;;;;;;;;;;;;;5091435;28;19908;-67
2023/03/09 08:20:31;;;;;;;;;;;;;;;;;;5072655;28;20011;-68
2023/03/09 08:22:57;;;;;;;;;;;;;;;;;;5090670;28;19911;-67
2023/03/09 08:25:23;;;;;;;;;;;;;;;;;;5076212;28;19923;-66
2023/03/09 08:27:49;;;;;;;;;;;;;;;;;;5070586;28;19909;-69
2023/03/09 08:30:15;;;;;;;;;;;;;;;;;;5069418;28;19943;-68
2023/03/09 08:32:42;;;;;;;;;;;;;;;;;;5071044;28;19916;-68
2023/03/09 08:35:08;;;;;;;;;;;;;;;;;;5071197;28;19919;-68
2023/03/09 08:37:34;;;;;;;;;;;;;;;;;;5070751;28;19998;-68
2023/03/09 08:40:00;;;;;;;;;;;;;;;;;;5070806;28;19916;-68
2023/03/09 08:42:26;;;;;;;;;;;;;;;;;;5072181;28;20387;-68
2023/03/09 08:44:52;;;;;;;;;;;;;;;;;;5070209;28;19912;-67
2023/03/09 08:49:59;;;;;;;;;;;;;;;;;;5088388;27;19923;-69
2023/03/09 08:54:38;;;;;;;;;;;;;;;;;;5088653;27;19916;-68
2023/03/09 08:57:04;;;;;;;;;;;;;;;;;;5089152;28;19912;-68
2023/03/09 08:59:31;;;;;;;;;;;;;;;;;;5088601;28;19916;-66
2023/03/09 09:01:57;;;;;;;;;;;;;;;;;;5089664;28;19912;-67
2023/03/09 09:04:23;;;;;;;;;;;;;;;;;;5087664;28;19908;-67
2023/03/09 09:09:00;;;;;;;;;;;;;;;;;;5070043;28;19919;-68
2023/03/09 09:11:26;;;;;;;;;;;;;;;;;;5068705;28;19912;-71
2023/03/09 09:13:52;;;;;;;;;;;;;;;;;;5067171;28;20384;-71
2023/03/09 09:16:18;;;;;;;;;;;;;;;;;;5067982;28;20328;-71
2023/03/09 09:18:44;;;;;;;;;;;;;;;;;;5067101;28;20007;-74
2023/03/09 09:21:10;;;;;;;;;;;;;;;;;;5068399;28;19917;-69
2023/03/09 09:23:35;;;;;;;;;;;;;;;;;;5068940;28;20369;-72
2023/03/09 09:26:01;;;;;;;;;;;;;;;;;;5069244;28;19935;-71
2023/03/09 09:28:27;;;;;;;;;;;;;;;;;;5068096;28;19966;-71
2023/03/09 09:30:53;;;;;;;;;;;;;;;;;;5068313;28;19913;-74
2023/03/09 09:36:38;;;;;;;;;;;;;;;;;;5087078;28;19923;-74
2023/03/09 09:39:04;;;;;;;;;;;;;;;;;;5085806;28;20405;-74
2023/03/09 09:41:30;;;;;;;;;;;;;;;;;;5084568;28;20002;-74
2023/03/09 09:43:56;;;;;;;;;;;;;;;;;;5080298;28;20402;-74
2023/03/09 09:47:55;;;;;;;;;;;;;;;;;;5106786;27;19912;-72
2023/03/09 09:50:21;;;;;;;;;;;;;;;;;;5107057;28;19947;-67
2023/03/09 09:52:47;;;;;;;;;;;;;;;;;;5106647;28;19912;-67
2023/03/09 09:55:13;;;;;;;;;;;;;;;;;;5107616;28;19962;-69
2023/03/09 09:57:39;;;;;;;;;;;;;;;;;;5108712;28;19935;-70
2023/03/09 10:05:21;;;;;;;;;;;;;;;;;;5148524;27;19918;-68
2023/03/09 10:07:47;;;;;;;;;;;;;;;;;;5148521;27;20002;-68
2023/03/09 10:10:32;;;;;;;;;;;;;;;;;;5088327;28;19927;-68
2023/03/09 10:12:58;;;;;;;;;;;;;;;;;;5088696;28;19913;-68
2023/03/09 10:16:43;;;;;;;;;;;;;;;;;;5088198;27;19938;-67
2023/03/09 10:20:32;;;;;;;;;;;;;;;;;;5089449;27;19920;-67
2023/03/09 10:33:27;;;;;;;;;;;;;;;;;;5107237;27;19912;-69
2023/03/09 10:35:53;;;;;;;;;;;;;;;;;;5106043;28;20271;-66
2023/03/09 10:38:19;;;;;;;;;;;;;;;;;;5107787;28;20002;-66
2023/03/09 10:47:03;;;;;;;;;;;;;;;;;;5078369;27;19924;-68
2023/03/09 10:53:58;;;;;;;;;;;;;;;;;;5088964;27;19923;-71
2023/03/09 10:56:24;;;;;;;;;;;;;;;;;;5086093;28;19912;-70
2023/03/09 10:58:50;;;;;;;;;;;;;;;;;;5086208;28;19912;-68
2023/03/09 11:01:16;;;;;;;;;;;;;;;;;;5080675;28;20019;-67
2023/03/09 11:07:53;;;;;;;;;;;;;;;;;;5125693;27;19920;-68
2023/03/09 11:10:19;;;;;;;;;;;;;;;;;;5128973;28;19954;-70
2023/03/09 11:12:45;;;;;;;;;;;;;;;;;;5126082;28;20361;-67
2023/03/09 11:15:11;;;;;;;;;;;;;;;;;;5129380;28;19931;-70
2023/03/09 11:20:00;;;;;;;;;;;;;;;;;;5074316;28;20296;-69
2023/03/09 11:24:12;;;;;;;;;;;;;;;;;;5105051;27;20409;-67
2023/03/09 11:29:02;;;;;;;;;;;;;;;;;;5139608;27;19967;-69
2023/03/09 11:31:29;;;;;;;;;;;;;;;;;;5119577;28;19912;-68
2023/03/09 11:34:07;;;;;;;;;;;;;;;;;;5088293;28;20543;-68
2023/03/09 11:37:24;;;;;;;;;;;;;;;;;;5109969;27;19912;-68
2023/03/09 11:39:51;;;;;;;;;;;;;;;;;;5119376;27;19919;-67
2023/03/09 11:42:17;;;;;;;;;;;;;;;;;;5107835;28;19908;-66
2023/03/09 11:46:38;;;;;;;;;;;;;;;;;;5107085;27;19912;-67
2023/03/09 11:49:08;;;;;;;;;;;;;;;;;;5108883;28;19912;-68
2023/03/09 11:51:34;;;;;;;;;;;;;;;;;;5105405;28;19954;-68
2023/03/09 11:54:01;;;;;;;;;;;;;;;;;;5110176;28;19912;-68
2023/03/09 11:57:13;;;;;;;;;;;;;;;;;;5157461;27;19911;-69
2023/03/09 11:59:40;;;;;;;;;;;;;;;;;;5155463;27;20022;-67
2023/03/09 12:02:06;;;;;;;;;;;;;;;;;;5146201;27;20359;-67
2023/03/09 12:04:32;;;;;;;;;;;;;;;;;;5156974;27;19916;-68
2023/03/09 12:06:59;;;;;;;;;;;;;;;;;;5135014;27;19911;-67
2023/03/09 12:13:44;;;;;;;;;;;;;;;;;;5109788;27;19913;-67
2023/03/09 12:17:47;;;;;;;;;;;;;;;;;;5088823;27;19916;-67
2023/03/09 12:20:13;;;;;;;;;;;;;;;;;;5087934;28;19923;-67
2023/03/09 12:23:06;;;;;;;;;;;;;;;;;;5087773;27;19916;-67
2023/03/09 12:25:32;;;;;;;;;;;;;;;;;;5089812;28;20364;-69
2023/03/09 12:27:59;;;;;;;;;;;;;;;;;;5090104;28;19908;-70
2023/03/09 12:30:25;;;;;;;;;;;;;;;;;;5090467;28;19956;-69
2023/03/09 12:32:51;;;;;;;;;;;;;;;;;;5086623;28;19912;-70
2023/03/09 12:35:16;;;;;;;;;;;;;;;;;;5087029;28;20380;-72
2023/03/09 12:38:50;;;;;;;;;;;;;;;;;;5105583;27;20391;-70
2023/03/09 12:43:23;;;;;;;;;;;;;;;;;;5061107;28;19927;-70
2023/03/09 12:47:24;;;;;;;;;;;;;;;;;;5100849;27;19935;-69
2023/03/09 12:49:50;;;;;;;;;;;;;;;;;;5098501;28;20446;-69
2023/03/09 12:54:47;;;;;;;;;;;;;;;;;;5086626;28;20347;-68
2023/03/09 12:57:13;;;;;;;;;;;;;;;;;;5074790;28;19912;-68
2023/03/09 13:00:57;;;;;;;;;;;;;;;;;;5108112;27;19915;-68
2023/03/09 13:05:08;;;;;;;;;;;;;;;;;;5108446;27;19918;-67
2023/03/09 13:07:34;;;;;;;;;;;;;;;;;;5103208;28;19916;-67
2023/03/09 13:10:00;;;;;;;;;;;;;;;;;;5104013;28;19953;-67
2023/03/09 13:13:47;;;;;;;;;;;;;;;;;;5085351;27;19917;-70
2023/03/09 13:16:12;;;;;;;;;;;;;;;;;;5087007;28;19917;-68
2023/03/09 13:18:38;;;;;;;;;;;;;;;;;;5087777;28;19915;-70
2023/03/09 13:24:18;;;;;;;;;;;;;;;;;;5088891;27;19912;-68
2023/03/09 13:26:44;;;;;;;;;;;;;;;;;;5088901;28;20000;-68
2023/03/09 13:29:10;;;;;;;;;;;;;;;;;;5089387;28;20391;-68
2023/03/09 13:32:30;;;;;;;;;;;;;;;;;;5109000;27;20376;-67
2023/03/09 13:36:46;;;;;;;;;;;;;;;;;;5151833;27;20328;-68
2023/03/09 13:39:12;;;;;;;;;;;;;;;;;;5151644;27;19956;-67
2023/03/09 13:41:38;;;;;;;;;;;;;;;;;;5152075;27;19907;-67
2023/03/09 13:44:03;;;;;;;;;;;;;;;;;;5151974;27;19915;-68
2023/03/09 13:46:29;;;;;;;;;;;;;;;;;;5151457;27;19907;-67
2023/03/09 13:48:55;;;;;;;;;;;;;;;;;;5151843;27;19907;-68
2023/03/09 13:51:21;;;;;;;;;;;;;;;;;;5152307;27;19914;-69
2023/03/09 13:53:47;;;;;;;;;;;;;;;;;;5151765;27;19907;-70
2023/03/09 13:56:13;;;;;;;;;;;;;;;;;;5150099;27;19915;-69
2023/03/09 13:58:39;;;;;;;;;;;;;;;;;;5150124;27;20291;-69
2023/03/09 14:01:05;;;;;;;;;;;;;;;;;;5149680;27;19913;-70
2023/03/09 14:03:31;;;;;;;;;;;;;;;;;;5150221;27;19912;-66
2023/03/09 14:05:57;;;;;;;;;;;;;;;;;;5150536;27;19952;-66
2023/03/09 14:08:23;;;;;;;;;;;;;;;;;;5131675;27;20256;-67
2023/03/09 14:10:49;;;;;;;;;;;;;;;;;;5151940;27;20002;-66
2023/03/09 14:13:16;;;;;;;;;;;;;;;;;;5152254;27;19908;-66
2023/03/09 14:15:42;;;;;;;;;;;;;;;;;;5151764;27;19915;-66
2023/03/09 14:18:07;;;;;;;;;;;;;;;;;;5152420;27;19914;-67
2023/03/09 14:20:33;;;;;;;;;;;;;;;;;;5133134;27;20099;-67
2023/03/09 14:22:59;;;;;;;;;;;;;;;;;;5152268;27;19908;-67
2023/03/09 14:25:27;;;;;;;;;;;;;;;;;;5151947;27;19959;-67
2023/03/09 14:27:53;;;;;;;;;;;;;;;;;;5151830;27;20388;-66
2023/03/09 14:30:19;;;;;;;;;;;;;;;;;;5151946;27;20415;-65
2023/03/09 14:32:45;;;;;;;;;;;;;;;;;;5151904;27;19907;-66
2023/03/09 14:35:10;;;;;;;;;;;;;;;;;;5151010;27;19920;-67
2023/03/09 14:37:37;;;;;;;;;;;;;;;;;;5151761;27;19965;-66
2023/03/09 14:40:02;;;;;;;;;;;;;;;;;;5151722;27;20431;-65
2023/03/09 14:42:29;;;;;;;;;;;;;;;;;;5151272;27;19945;-67
2023/03/09 14:44:54;;;;;;;;;;;;;;;;;;5150404;27;20289;-67
2023/03/09 14:47:20;;;;;;;;;;;;;;;;;;5142287;27;19908;-67
2023/03/09 14:49:46;;;;;;;;;;;;;;;;;;5137537;27;20423;-67
2023/03/09 14:52:12;;;;;;;;;;;;;;;;;;5136425;27;20363;-67
2023/03/09 14:54:38;;;;;;;;;;;;;;;;;;5137506;27;19912;-67
2023/03/09 14:57:04;;;;;;;;;;;;;;;;;;5135828;27;19964;-67
2023/03/09 14:59:30;;;;;;;;;;;;;;;;;;5136182;27;20002;-67
2023/03/09 15:04:15;;;;;;;;;;;;;;;;;;5111571;27;19916;-67
2023/03/09 15:06:41;;;;;;;;;;;;;;;;;;5111712;28;20011;-66
2023/03/09 15:09:07;;;;;;;;;;;;;;;;;;5111670;28;19912;-66
2023/03/09 15:11:33;;;;;;;;;;;;;;;;;;5111241;28;19990;-66
2023/03/09 15:13:59;;;;;;;;;;;;;;;;;;5111595;28;19908;-66
2023/03/09 15:16:49;;;;;;;;;;;;;;;;;;5091517;27;19923;-66
2023/03/09 15:21:42;;;;;;;;;;;;;;;;;;5112058;27;19916;-66
2023/03/09 15:24:08;;;;;;;;;;;;;;;;;;5111336;28;20546;-67
2023/03/09 15:26:34;;;;;;;;;;;;;;;;;;5111618;28;19908;-67
2023/03/09 15:28:59;;;;;;;;;;;;;;;;;;5111954;28;19915;-67
2023/03/09 15:31:25;;;;;;;;;;;;;;;;;;5109905;28;19912;-67
2023/03/09 15:33:51;;;;;;;;;;;;;;;;;;5110252;28;19912;-67
2023/03/09 15:36:17;;;;;;;;;;;;;;;;;;5111688;28;19915;-66
2023/03/09 15:38:46;;;;;;;;;;;;;;;;;;5111012;28;19908;-67
2023/03/09 15:41:12;;;;;;;;;;;;;;;;;;5111340;28;19923;-67
2023/03/09 15:43:38;;;;;;;;;;;;;;;;;;5111364;28;19908;-67
2023/03/09 15:47:41;;;;;;;;;;;;;;;;;;5092257;27;19917;-66
2023/03/09 15:50:06;;;;;;;;;;;;;;;;;;5090083;28;20015;-67
2023/03/09 15:52:32;;;;;;;;;;;;;;;;;;5091181;28;19995;-66
2023/03/09 15:54:58;;;;;;;;;;;;;;;;;;5091271;28;20322;-67
2023/03/09 15:59:41;;;;;;;;;;;;;;;;;;5111936;27;19916;-66
2023/03/09 16:02:07;;;;;;;;;;;;;;;;;;5111718;28;20007;-66
2023/03/09 16:05:39;;;;;;;;;;;;;;;;;;5092152;27;19916;-67
2023/03/09 16:08:58;;;;;;;;;;;;;;;;;;5091610;27;19917;-66
2023/03/09 16:11:24;;;;;;;;;;;;;;;;;;5091396;28;20002;-66
2023/03/09 16:14:24;;;;;;;;;;;;;;;;;;5091404;27;19923;-67
2023/03/09 16:16:50;;;;;;;;;;;;;;;;;;5091020;28;19913;-66
2023/03/09 16:24:30;;;;;;;;;;;;;;;;;;5092091;27;19916;-66
2023/03/09 16:29:26;;;;;;;;;;;;;;;;;;5111805;27;20229;-65
2023/03/09 16:34:34;;;;;;;;;;;;;;;;;;5091733;27;19923;-65
2023/03/09 16:37:00;;;;;;;;;;;;;;;;;;5089902;28;20006;-66
2023/03/09 16:40:02;;;;;;;;;;;;;;;;;;5132606;27;20006;-66
2023/03/09 16:42:29;;;;;;;;;;;;;;;;;;5130273;28;19966;-66
2023/03/09 16:46:07;;;;;;;;;;;;;;;;;;5091925;27;20279;-66
2023/03/09 16:48:33;;;;;;;;;;;;;;;;;;5090862;28;20482;-66
2023/03/09 16:52:52;;;;;;;;;;;;;;;;;;5092028;27;19916;-66
2023/03/09 16:55:18;;;;;;;;;;;;;;;;;;5091285;28;20035;-66
2023/03/09 16:57:44;;;;;;;;;;;;;;;;;;5091650;28;20317;-66
2023/03/09 17:00:10;;;;;;;;;;;;;;;;;;5091059;28;19915;-66
2023/03/09 17:02:36;;;;;;;;;;;;;;;;;;5089304;28;19913;-66
2023/03/09 17:05:32;;;;;;;;;;;;;;;;;;5091440;27;19938;-66
2023/03/09 17:12:26;;;;;;;;;;;;;;;;;;5091904;28;19917;-65
2023/03/09 17:18:57;;;;;;;;;;;;;;;;;;5092059;27;19922;-66
2023/03/09 17:21:23;;;;;;;;;;;;;;;;;;5091316;28;20003;-66
2023/03/09 17:23:49;;;;;;;;;;;;;;;;;;5089506;28;20368;-66
2023/03/09 17:27:52;;;;;;;;;;;;;;;;;;5092016;27;19916;-66
2023/03/09 17:30:18;;;;;;;;;;;;;;;;;;5091568;28;20007;-68
2023/03/09 17:32:44;;;;;;;;;;;;;;;;;;5090780;28;19912;-67
2023/03/09 17:35:10;;;;;;;;;;;;;;;;;;5089955;28;19938;-66
2023/03/09 17:39:06;;;;;;;;;;;;;;;;;;5111480;27;19916;-66
2023/03/09 17:41:32;;;;;;;;;;;;;;;;;;5110251;28;19951;-65
2023/03/09 17:43:58;;;;;;;;;;;;;;;;;;5111574;28;19915;-66
2023/03/09 17:46:24;;;;;;;;;;;;;;;;;;5111097;28;19912;-67
2023/03/09 17:49:26;;;;;;;;;;;;;;;;;;5092008;28;19916;-66
2023/03/09 17:54:07;;;;;;;;;;;;;;;;;;5112036;27;19918;-66
2023/03/09 17:56:33;;;;;;;;;;;;;;;;;;5111673;28;19912;-66
2023/03/09 17:58:59;;;;;;;;;;;;;;;;;;5111460;28;19961;-67
2023/03/09 18:01:25;;;;;;;;;;;;;;;;;;5111864;28;19912;-66
2023/03/09 18:04:38;;;;;;;;;;;;;;;;;;5153484;27;19915;-67
2023/03/09 18:08:55;;;;;;;;;;;;;;;;;;5092240;27;19923;-68
2023/03/09 18:11:20;;;;;;;;;;;;;;;;;;5091684;28;19974;-67
2023/03/09 18:13:46;;;;;;;;;;;;;;;;;;5091000;28;19908;-66
2023/03/09 18:16:12;;;;;;;;;;;;;;;;;;5091265;28;19908;-67
2023/03/09 18:18:39;;;;;;;;;;;;;;;;;;5090063;28;19958;-67
2023/03/09 18:21:07;;;;;;;;;;;;;;;;;;5090371;28;19908;-65
2023/03/09 18:23:33;;;;;;;;;;;;;;;;;;5089755;28;19908;-66
2023/03/09 18:28:45;;;;;;;;;;;;;;;;;;5090916;27;20303;-66
2023/03/09 18:31:11;;;;;;;;;;;;;;;;;;5090107;28;19919;-67
2023/03/09 18:33:37;;;;;;;;;;;;;;;;;;5091224;28;20390;-67
2023/03/09 18:36:03;;;;;;;;;;;;;;;;;;5090935;28;19912;-66
2023/03/09 18:38:29;;;;;;;;;;;;;;;;;;5091148;28;19908;-65
2023/03/09 18:40:55;;;;;;;;;;;;;;;;;;5090970;28;19912;-66
2023/03/09 18:45:12;;;;;;;;;;;;;;;;;;5091684;27;19922;-67